Time;durP1;ratioP1;P1;durP2;ratioP2;P2;SDS_P1;SDS_P2;PMS_P1;PMS_P2;Temp;Humidity;BMP_temperature;BMP_pressure;BME280_temperature;BME280_humidity;BME280_pressure;Samples;Min_cycle;Max_cycle;Signal;HPM_P1;HPM_P2
2023/01/12 00:01:19;;;;;;;14.85;2.15;;;;;;;9.58;100.00;100737.50;4941039;29;20054;-75
2023/01/12 00:03:44;;;;;;;17.60;2.15;;;;;;;9.64;100.00;100736.13;4958261;29;20047;-77
2023/01/12 00:06:10;;;;;;;9.55;1.95;;;;;;;9.64;100.00;100726.09;4963239;28;20043;-75
2023/01/12 00:08:36;;;;;;;16.67;2.17;;;;;;;9.59;100.00;100724.69;4957613;29;20170;-75
2023/01/12 00:11:02;;;;;;;12.75;1.50;;;;;;;9.82;100.00;100736.56;4937554;29;20040;-75
2023/01/12 00:13:30;;;;;;;17.55;2.92;;;;;;;9.74;100.00;100727.13;4972520;28;20059;-74
2023/01/12 00:18:43;;;;;;;15.13;1.58;;;;;;;9.61;100.00;100718.13;4958201;29;20086;-74
2023/01/12 00:21:08;;;;;;;11.73;1.50;;;;;;;9.66;100.00;100718.63;4939515;29;20035;-76
2023/01/12 00:23:34;;;;;;;15.25;1.92;;;;;;;9.75;100.00;100711.56;4941031;29;20035;-75
2023/01/12 00:25:59;;;;;;;18.95;2.75;;;;;;;9.47;100.00;100715.59;4943079;29;20050;-75
2023/01/12 00:28:25;;;;;;;21.08;2.45;;;;;;;9.37;100.00;100713.53;4940272;29;20043;-74
2023/01/12 00:30:50;;;;;;;18.05;2.03;;;;;;;9.42;100.00;100713.19;4957462;29;20069;-74
2023/01/12 00:33:15;;;;;;;21.05;1.77;;;;;;;9.36;100.00;100708.19;4958349;29;20031;-75
2023/01/12 00:35:41;;;;;;;22.88;3.30;;;;;;;9.46;100.00;100697.44;4939739;29;20054;-75
2023/01/12 00:38:06;;;;;;;13.77;1.77;;;;;;;9.40;100.00;100700.66;4937601;29;20031;-75
2023/01/12 00:40:34;;;;;;;23.02;2.60;;;;;;;9.38;100.00;100682.50;4948152;28;20043;-75
2023/01/12 00:45:49;;;;;;;13.05;1.75;;;;;;;9.59;100.00;100683.69;4926243;29;20036;-74
2023/01/12 00:48:14;;;;;;;16.35;2.03;;;;;;;9.63;100.00;100686.06;4957230;29;20043;-74
2023/01/12 00:50:39;;;;;;;17.48;2.33;;;;;;;9.63;100.00;100686.06;4940901;29;20034;-74
2023/01/12 00:53:05;;;;;;;9.35;2.55;;;;;;;9.74;100.00;100680.63;4940608;29;20039;-74
2023/01/12 00:55:30;;;;;;;21.30;2.78;;;;;;;9.81;100.00;100682.91;4951664;29;20122;-74
2023/01/12 00:57:56;;;;;;;14.20;2.08;;;;;;;9.61;100.00;100682.59;4933146;29;20459;-75
2023/01/12 01:00:22;;;;;;;19.00;2.20;;;;;;;9.78;100.00;100680.41;4963390;28;20114;-74
2023/01/12 01:02:47;;;;;;;20.65;2.65;;;;;;;9.63;100.00;100664.19;4957768;28;20474;-76
2023/01/12 01:05:13;;;;;;;16.08;2.83;;;;;;;9.62;100.00;100681.59;4939862;29;20063;-75
2023/01/12 01:07:38;;;;;;;25.67;2.58;;;;;;;9.71;100.00;100683.59;4956564;29;20126;-74
2023/01/12 01:10:04;;;;;;;13.93;2.20;;;;;;;9.69;100.00;100671.03;4952072;29;20391;-74
2023/01/12 01:12:29;;;;;;;27.42;3.10;;;;;;;9.72;100.00;100679.00;4960831;28;20410;-75
2023/01/12 01:14:55;;;;;;;23.38;2.15;;;;;;;9.67;100.00;100682.09;4956025;29;20043;-74
2023/01/12 01:17:20;;;;;;;20.58;2.08;;;;;;;9.75;100.00;100663.22;4957128;29;20116;-74
2023/01/12 01:19:47;;;;;;;17.23;3.05;;;;;;;9.57;100.00;100660.09;4955519;29;20447;-74
2023/01/12 01:22:12;;;;;;;20.48;2.70;;;;;;;9.72;100.00;100668.97;4957344;29;20031;-74
2023/01/12 01:24:38;;;;;;;16.80;2.60;;;;;;;9.77;100.00;100656.78;4940459;29;20102;-74
2023/01/12 01:27:04;;;;;;;16.85;2.47;;;;;;;9.74;100.00;100657.91;4954744;29;20066;-75
2023/01/12 01:29:29;;;;;;;22.75;2.55;;;;;;;9.77;100.00;100652.16;4968209;28;20031;-75
2023/01/12 01:31:54;;;;;;;22.50;3.20;;;;;;;9.66;100.00;100661.22;4940705;29;20031;-75
2023/01/12 01:34:20;;;;;;;25.80;2.60;;;;;;;9.74;100.00;100645.09;4939933;29;20035;-74
2023/01/12 01:36:45;;;;;;;21.27;2.60;;;;;;;9.83;100.00;100635.28;4943734;29;20046;-74
2023/01/12 01:39:11;;;;;;;20.35;2.17;;;;;;;9.96;100.00;100643.38;4924632;29;20043;-75
2023/01/12 01:41:36;;;;;;;18.88;2.00;;;;;;;9.84;100.00;100634.28;4957706;29;20043;-75
2023/01/12 01:44:04;;;;;;;23.02;2.70;;;;;;;9.85;100.00;100633.28;4924452;29;20035;-74
2023/01/12 01:46:39;;;;;;;18.02;2.58;;;;;;;9.98;100.00;100632.31;4922912;29;20046;-74
2023/01/12 01:49:22;;;;;;;28.40;3.10;;;;;;;9.90;100.00;100636.53;4960960;28;20338;-75
2023/01/12 01:51:50;;;;;;;20.80;3.10;;;;;;;9.92;100.00;100626.34;4969892;28;20547;-74
2023/01/12 01:54:15;;;;;;;24.05;4.90;;;;;;;9.99;100.00;100621.25;4940425;29;20130;-75
2023/01/12 01:56:41;;;;;;;10.80;1.90;;;;;;;9.96;100.00;100624.22;4938577;29;20059;-76
2023/01/12 01:59:13;;;;;;;18.73;2.47;;;;;;;9.97;100.00;100625.09;4924057;29;20405;-75
2023/01/12 02:01:38;;;;;;;26.38;3.05;;;;;;;9.96;100.00;100613.28;4955339;29;20078;-75
2023/01/12 02:04:05;;;;;;;25.88;2.55;;;;;;;9.93;100.00;100617.13;4935311;29;20035;-75
2023/01/12 02:06:31;;;;;;;24.13;2.47;;;;;;;9.94;100.00;100615.28;4954936;28;20042;-75
2023/01/12 02:08:59;;;;;;;23.80;3.08;;;;;;;10.11;100.00;100611.19;4935402;29;20036;-75
2023/01/12 02:17:37;;;;;;;25.45;2.83;;;;;;;9.96;100.00;100576.88;4937747;29;20094;-74
2023/01/12 02:20:27;;;;;;;24.92;2.30;;;;;;;9.71;100.00;100571.50;4967502;28;20047;-74
2023/01/12 02:23:01;;;;;;;23.95;2.95;;;;;;;9.84;100.00;100575.97;4952063;29;20070;-76
2023/01/12 02:25:38;;;;;;;26.13;2.00;;;;;;;9.91;100.00;100575.38;4955354;29;20042;-74
2023/01/12 02:28:26;;;;;;;22.88;3.17;;;;;;;10.04;100.00;100571.66;4955959;29;20031;-74
2023/01/12 02:31:24;;;;;;;17.80;1.98;;;;;;;9.94;100.00;100566.06;4956412;29;20050;-74
2023/01/12 02:34:02;;;;;;;31.55;2.25;;;;;;;9.98;100.00;100561.22;4957892;28;20039;-74
2023/01/12 02:37:04;;;;;;;25.13;3.33;;;;;;;10.03;100.00;100557.09;4955314;29;20106;-74
2023/01/12 02:39:58;;;;;;;31.15;3.10;;;;;;;9.94;100.00;100560.59;4939560;29;20393;-74
2023/01/12 02:43:04;;;;;;;33.85;3.83;;;;;;;9.95;100.00;100551.38;4981367;28;20147;-74
2023/01/12 02:45:53;;;;;;;20.38;2.10;;;;;;;10.04;100.00;100541.56;4939981;29;20495;-74
2023/01/12 02:48:50;;;;;;;23.52;2.33;;;;;;;10.00;100.00;100546.41;4957683;28;20036;-73
2023/01/12 02:51:21;;;;;;;29.10;3.42;;;;;;;9.97;100.00;100549.41;4941410;29;20028;-74
2023/01/12 02:53:54;;;;;;;22.25;2.15;;;;;;;9.92;100.00;100544.31;4959176;29;20157;-74
2023/01/12 02:56:29;;;;;;;24.42;2.58;;;;;;;9.94;100.00;100545.03;4972776;28;20121;-73
2023/01/12 02:59:01;;;;;;;38.05;3.10;;;;;;;10.16;100.00;100535.06;4957763;28;20031;-74
2023/01/12 03:01:27;;;;;;;21.65;2.05;;;;;;;10.08;100.00;100535.72;4942998;28;20110;-74
2023/01/12 03:03:57;;;;;;;19.67;2.00;;;;;;;9.93;100.00;100531.50;4965969;28;20098;-73
2023/01/12 03:06:22;;;;;;;25.70;2.42;;;;;;;9.98;100.00;100523.78;4958194;29;20039;-73
2023/01/12 03:08:50;;;;;;;32.60;2.90;;;;;;;10.05;100.00;100524.13;4925484;29;20039;-74
2023/01/12 03:11:18;;;;;;;32.97;2.45;;;;;;;10.11;100.00;100509.97;4938441;29;20040;-74
2023/01/12 03:13:59;;;;;;;23.35;2.97;;;;;;;10.03;100.00;100501.53;4958603;29;20506;-74
2023/01/12 03:16:31;;;;;;;18.17;1.90;;;;;;;9.99;100.00;100511.84;4951638;28;20031;-74
2023/01/12 03:19:16;;;;;;;31.15;3.60;;;;;;;10.12;100.00;100501.63;4927216;28;20528;-75
2023/01/12 03:21:46;;;;;;;24.55;2.40;;;;;;;10.08;100.00;100493.81;4972825;28;20043;-74
2023/01/12 03:24:18;;;;;;;24.20;2.50;;;;;;;10.03;100.00;100493.31;4958243;29;20039;-74
2023/01/12 03:26:51;;;;;;;24.08;1.98;;;;;;;10.25;100.00;100495.16;4942064;29;20071;-75
2023/01/12 03:29:31;;;;;;;17.40;2.08;;;;;;;10.12;100.00;100484.34;4947136;29;20039;-74
2023/01/12 03:31:58;;;;;;;24.13;3.50;;;;;;;10.09;100.00;100482.72;4937891;29;20031;-74
2023/01/12 03:34:25;;;;;;;17.77;1.88;;;;;;;10.08;100.00;100477.38;4958770;29;20067;-75
2023/01/12 03:36:59;;;;;;;29.13;2.67;;;;;;;10.33;100.00;100469.88;4955001;29;20042;-74
2023/01/12 03:39:40;;;;;;;14.85;1.85;;;;;;;10.23;100.00;100459.72;4921947;29;20043;-74
2023/01/12 03:42:22;;;;;;;21.15;2.42;;;;;;;10.21;100.00;100449.88;4939072;29;20046;-74
2023/01/12 03:45:07;;;;;;;18.02;1.80;;;;;;;10.15;100.00;100456.75;4958682;29;20155;-74
2023/01/12 03:47:35;;;;;;;16.98;2.20;;;;;;;10.09;100.00;100447.16;4957371;28;20035;-74
2023/01/12 03:50:10;;;;;;;18.17;2.95;;;;;;;10.19;100.00;100451.88;4957824;29;20113;-74
2023/01/12 03:52:39;;;;;;;18.02;2.35;;;;;;;10.17;100.00;100441.06;4940993;29;20050;-74
2023/01/12 03:55:09;;;;;;;19.52;3.30;;;;;;;10.07;100.00;100430.03;4957573;29;20041;-74
2023/01/12 03:57:37;;;;;;;17.30;3.20;;;;;;;10.10;100.00;100427.03;4955814;28;20039;-74
2023/01/12 04:00:06;;;;;;;24.13;2.55;;;;;;;9.99;100.00;100421.59;4957821;28;20062;-75
2023/01/12 04:02:32;;;;;;;25.63;3.05;;;;;;;10.03;100.00;100424.94;4942330;28;20105;-74
2023/01/12 04:04:58;;;;;;;21.75;2.35;;;;;;;10.11;100.00;100412.34;4968852;28;20043;-74
2023/01/12 04:07:23;;;;;;;14.77;2.05;;;;;;;10.00;100.00;100406.03;4921077;29;20050;-74
2023/01/12 04:09:49;;;;;;;14.15;1.83;;;;;;;10.09;100.00;100408.00;4939208;29;20127;-74
2023/01/12 04:12:14;;;;;;;16.60;1.90;;;;;;;10.04;100.00;100377.44;4950904;29;20075;-74
2023/01/12 04:14:42;;;;;;;11.98;1.05;;;;;;;10.04;100.00;100380.19;4925265;29;20089;-74
2023/01/12 04:17:10;;;;;;;10.27;1.55;;;;;;;9.98;100.00;100354.22;4948999;29;20438;-74
2023/01/12 04:19:35;;;;;;;16.80;1.63;;;;;;;10.09;100.00;100351.44;4940905;29;20138;-75
2023/01/12 04:24:45;;;;;;;11.07;1.40;;;;;;;10.11;100.00;100335.75;4957283;29;20082;-74
2023/01/12 04:27:11;;;;;;;17.08;1.85;;;;;;;10.09;100.00;100329.53;4936691;29;20032;-74
2023/01/12 04:29:36;;;;;;;5.95;1.00;;;;;;;10.02;100.00;100336.56;4938645;29;20398;-75
2023/01/12 04:32:03;;;;;;;14.32;1.77;;;;;;;10.07;100.00;100317.03;4955489;28;20043;-74
2023/01/12 04:34:28;;;;;;;21.83;3.42;;;;;;;10.07;100.00;100317.88;4950000;29;20040;-74
2023/01/12 04:36:54;;;;;;;15.23;1.83;;;;;;;10.01;100.00;100310.19;4937569;29;20074;-75
2023/01/12 04:39:19;;;;;;;21.65;2.05;;;;;;;10.04;100.00;100306.34;4925488;29;20039;-75
2023/01/12 04:41:45;;;;;;;7.43;2.08;;;;;;;9.89;100.00;100303.91;4953772;29;20043;-75
2023/01/12 04:44:10;;;;;;;22.08;3.20;;;;;;;9.99;100.00;100289.47;4924824;29;20405;-75
2023/01/12 04:46:35;;;;;;;17.58;2.88;;;;;;;9.89;100.00;100281.19;4942188;28;20028;-75
2023/01/12 04:49:01;;;;;;;30.02;2.08;;;;;;;9.98;100.00;100307.72;4924538;29;20108;-76
2023/01/12 04:51:26;;;;;;;21.17;2.75;;;;;;;10.02;100.00;100301.00;4956857;29;20482;-75
2023/01/12 04:53:52;;;;;;;23.55;1.63;;;;;;;9.86;100.00;100286.91;4935668;29;20035;-75
2023/01/12 04:56:18;;;;;;;19.33;2.03;;;;;;;9.79;100.00;100274.75;4959053;28;20490;-75
2023/01/12 04:58:44;;;;;;;8.35;1.73;;;;;;;9.79;100.00;100269.28;4962511;28;20069;-75
2023/01/12 05:01:18;;;;;;;8.32;1.40;;;;;;;9.93;100.00;100275.28;4939858;29;20071;-75
2023/01/12 05:03:44;;;;;;;16.58;2.22;;;;;;;9.94;100.00;100255.16;4938076;29;20047;-75
2023/01/12 05:06:10;;;;;;;19.40;2.90;;;;;;;9.80;100.00;100240.94;4940494;29;20435;-75
2023/01/12 05:11:27;;;;;;;20.88;2.55;;;;;;;9.78;100.00;100262.09;4955936;29;20070;-74
2023/01/12 05:13:53;;;;;;;16.60;1.83;;;;;;;9.75;100.00;100241.34;4969710;28;20046;-74
2023/01/12 05:16:18;;;;;;;14.82;1.25;;;;;;;9.82;100.00;100228.00;4957193;28;20121;-74
2023/01/12 05:18:44;;;;;;;16.65;2.25;;;;;;;9.82;100.00;100217.94;4939188;29;20089;-76
2023/01/12 05:21:11;;;;;;;27.50;1.85;;;;;;;9.80;100.00;100213.59;4935403;29;20035;-75
2023/01/12 05:23:36;;;;;;;18.60;1.85;;;;;;;9.84;100.00;100228.72;4956461;29;20118;-77
2023/01/12 05:26:04;;;;;;;16.33;1.02;;;;;;;9.79;100.00;100233.72;4952624;28;20473;-75
2023/01/12 05:28:30;;;;;;;14.13;1.70;;;;;;;9.90;100.00;100237.28;4938263;29;20497;-74
2023/01/12 05:31:05;;;;;;;13.90;1.27;;;;;;;9.86;100.00;100251.34;4959782;28;20035;-74
2023/01/12 05:33:31;;;;;;;18.75;2.25;;;;;;;9.80;100.00;100224.53;4939052;29;20043;-74
2023/01/12 05:35:57;;;;;;;19.40;2.10;;;;;;;9.92;100.00;100221.63;4940001;29;20073;-75
2023/01/12 05:38:22;;;;;;;12.25;1.20;;;;;;;9.95;100.00;100215.00;4932101;29;20062;-75
2023/01/12 05:40:48;;;;;;;19.58;2.10;;;;;;;9.93;100.00;100236.16;4906347;29;20066;-75
2023/01/12 05:46:04;;;;;;;30.38;3.05;;;;;;;9.77;100.00;100227.53;4944507;29;20039;-75
2023/01/12 05:48:31;;;;;;;21.52;1.65;;;;;;;9.86;100.00;100207.63;4947058;29;20101;-77
2023/01/12 05:51:05;;;;;;;20.08;3.03;;;;;;;10.01;100.00;100219.94;4954892;29;20039;-77
2023/01/12 05:53:31;;;;;;;22.05;1.63;;;;;;;10.03;100.00;100219.81;4942606;29;20038;-77
2023/01/12 05:55:57;;;;;;;14.73;2.40;;;;;;;9.74;100.00;100198.59;4951770;29;20133;-77
2023/01/12 05:58:23;;;;;;;19.48;1.90;;;;;;;9.85;100.00;100208.59;4969019;28;20067;-76
2023/01/12 06:00:48;;;;;;;10.85;2.30;;;;;;;9.62;100.00;100203.25;4972080;28;20043;-75
2023/01/12 06:03:13;;;;;;;21.58;2.00;;;;;;;9.67;100.00;100203.72;4980518;28;20054;-75
2023/01/12 06:05:39;;;;;;;17.88;1.83;;;;;;;9.67;100.00;100194.66;4955068;29;20046;-75
2023/01/12 06:08:04;;;;;;;8.13;1.27;;;;;;;9.67;100.00;100192.78;4936026;29;20131;-75
2023/01/12 06:10:33;;;;;;;18.80;2.00;;;;;;;9.80;100.00;100211.72;4919752;29;20035;-75
2023/01/12 06:15:43;;;;;;;15.98;1.48;;;;;;;9.73;100.00;100189.53;4937105;29;20058;-75
2023/01/12 06:18:08;;;;;;;15.73;1.90;;;;;;;9.65;100.00;100207.59;4921977;29;20044;-76
2023/01/12 06:20:33;;;;;;;22.08;3.35;;;;;;;9.69;100.00;100218.13;4936073;29;20032;-75
2023/01/12 06:23:00;;;;;;;18.15;2.22;;;;;;;9.79;100.00;100220.06;4936557;29;20104;-76
2023/01/12 06:25:28;;;;;;;31.52;3.03;;;;;;;9.88;100.00;100208.34;4925563;29;20478;-75
2023/01/12 06:27:53;;;;;;;27.48;2.55;;;;;;;9.84;100.00;100195.91;4935547;29;20514;-75
2023/01/12 06:30:19;;;;;;;17.50;1.70;;;;;;;9.74;100.00;100196.72;4937493;29;20044;-75
2023/01/12 06:32:44;;;;;;;19.63;1.65;;;;;;;9.67;100.00;100184.56;4934313;29;20042;-76
2023/01/12 06:35:10;;;;;;;8.93;1.17;;;;;;;9.76;100.00;100213.00;4935797;29;20039;-75
2023/01/12 06:37:35;;;;;;;28.88;2.65;;;;;;;10.00;100.00;100203.66;4937853;29;20039;-75
2023/01/12 06:40:01;;;;;;;15.45;1.42;;;;;;;9.95;100.00;100212.25;4945189;29;20097;-75
2023/01/12 06:42:30;;;;;;;20.42;1.67;;;;;;;10.01;100.00;100211.72;4944305;29;20122;-75
2023/01/12 06:44:57;;;;;;;16.63;1.70;;;;;;;9.90;100.00;100187.19;4940804;29;20040;-76
2023/01/12 06:47:23;;;;;;;19.80;1.85;;;;;;;10.01;100.00;100202.66;4955241;29;20035;-76
2023/01/12 06:49:50;;;;;;;13.52;1.92;;;;;;;9.85;100.00;100214.94;4939845;29;20115;-76
2023/01/12 06:52:18;;;;;;;14.90;1.85;;;;;;;9.78;100.00;100201.94;4919997;29;20040;-76
2023/01/12 06:54:43;;;;;;;10.40;1.83;;;;;;;9.77;100.00;100194.72;4935930;29;20066;-76
2023/01/12 06:57:09;;;;;;;11.30;2.08;;;;;;;10.08;100.00;100209.31;4936504;29;20495;-76
2023/01/12 06:59:34;;;;;;;10.13;1.40;;;;;;;10.21;100.00;100199.03;4930903;29;20099;-76
2023/01/12 07:01:59;;;;;;;7.18;1.00;;;;;;;10.21;100.00;100206.38;4938575;29;20110;-75
2023/01/12 07:04:25;;;;;;;14.88;1.77;;;;;;;10.24;100.00;100182.34;4936526;29;20072;-75
2023/01/12 07:06:53;;;;;;;16.88;1.60;;;;;;;10.17;100.00;100186.66;4939665;29;20039;-76
2023/01/12 07:09:19;;;;;;;15.63;2.83;;;;;;;10.20;100.00;100196.44;4938652;29;20031;-76
2023/01/12 07:11:44;;;;;;;15.88;1.95;;;;;;;9.96;100.00;100194.00;4929876;29;20043;-76
2023/01/12 07:14:10;;;;;;;15.00;1.85;;;;;;;9.92;100.00;100187.94;4974829;28;21681;-79
2023/01/12 07:16:35;;;;;;;7.28;1.17;;;;;;;10.10;100.00;100204.59;4941771;29;20043;-76
2023/01/12 07:19:00;;;;;;;4.53;0.90;;;;;;;10.15;100.00;100190.50;4932722;29;20031;-76
2023/01/12 07:21:26;;;;;;;12.85;2.50;;;;;;;10.25;100.00;100207.88;4927934;29;20062;-77
2023/01/12 07:23:51;;;;;;;13.55;1.30;;;;;;;10.31;100.00;100190.88;4931273;29;20051;-76
2023/01/12 07:26:17;;;;;;;5.13;0.82;;;;;;;10.30;100.00;100200.09;4979263;28;20085;-75
2023/01/12 07:28:42;;;;;;;8.57;1.27;;;;;;;10.31;100.00;100190.88;4942448;29;20047;-76
2023/01/12 07:31:08;;;;;;;9.98;1.35;;;;;;;10.30;100.00;100190.03;4953947;28;20045;-76
2023/01/12 07:33:33;;;;;;;5.28;1.10;;;;;;;10.39;100.00;100199.31;4946497;28;20043;-76
2023/01/12 07:36:00;;;;;;;12.20;2.03;;;;;;;10.44;100.00;100193.44;4955710;28;20046;-75
2023/01/12 07:38:27;;;;;;;11.48;1.35;;;;;;;10.31;100.00;100193.63;4966821;28;20035;-76
2023/01/12 07:40:53;;;;;;;12.90;1.33;;;;;;;10.29;100.00;100195.63;4968341;28;20110;-77
2023/01/12 07:43:19;;;;;;;13.32;1.70;;;;;;;10.37;100.00;100208.66;4923973;29;20121;-76
2023/01/12 07:45:45;;;;;;;9.48;1.50;;;;;;;10.39;100.00;100207.50;4956943;28;20095;-77
2023/01/12 07:48:10;;;;;;;8.68;1.92;;;;;;;10.27;100.00;100214.06;4958126;28;20057;-76
2023/01/12 07:50:36;;;;;;;3.90;1.02;;;;;;;10.36;100.00;100216.00;4942548;28;20493;-77
2023/01/12 07:53:02;;;;;;;10.05;1.17;;;;;;;10.26;100.00;100213.19;4975925;28;20106;-77
2023/01/12 07:55:30;;;;;;;9.30;1.85;;;;;;;10.27;100.00;100225.00;4976058;28;20070;-76
2023/01/12 07:57:57;;;;;;;4.95;1.25;;;;;;;10.38;100.00;100194.84;4957876;28;20390;-77
2023/01/12 08:00:24;;;;;;;6.53;1.00;;;;;;;10.43;100.00;100219.06;4958089;28;20036;-76
2023/01/12 08:02:51;;;;;;;17.77;1.80;;;;;;;10.72;100.00;100221.06;4977322;28;20385;-78
2023/01/12 08:05:17;;;;;;;13.57;2.45;;;;;;;10.61;100.00;100230.25;4960032;28;20031;-76
2023/01/12 08:07:43;;;;;;;6.10;1.08;;;;;;;10.62;100.00;100229.22;4976842;28;20109;-76
2023/01/12 08:10:10;;;;;;;5.75;0.80;;;;;;;10.68;100.00;100236.03;4942232;28;20121;-77
2023/01/12 08:12:35;;;;;;;3.97;0.90;;;;;;;10.72;100.00;100240.22;4960715;28;20059;-76
2023/01/12 08:15:02;;;;;;;7.22;1.30;;;;;;;10.76;100.00;100231.59;4959907;28;20094;-76
2023/01/12 08:17:33;;;;;;;11.23;1.27;;;;;;;11.09;100.00;100242.38;4940996;29;20039;-76
2023/01/12 08:20:04;;;;;;;11.77;1.58;;;;;;;11.09;100.00;100242.38;4957658;29;20039;-76
2023/01/12 08:22:36;;;;;;;12.63;1.42;;;;;;;11.06;100.00;100231.69;4958384;28;20043;-76
2023/01/12 08:25:09;;;;;;;5.65;1.20;;;;;;;11.00;100.00;100239.47;4960192;28;20075;-76
2023/01/12 08:27:36;;;;;;;;;;;;;;;11.06;100.00;100240.78;4955032;29;20035;-76
2023/01/12 08:30:05;;;;;;;7.07;1.05;;;;;;;11.20;100.00;100245.00;4966240;28;20328;-76
2023/01/12 08:32:31;;;;;;;9.63;1.40;;;;;;;11.19;100.00;100252.34;4977000;28;20039;-76
2023/01/12 08:34:59;;;;;;;8.75;1.23;;;;;;;11.12;100.00;100245.69;4977038;28;20085;-76
2023/01/12 08:37:27;;;;;;;7.55;1.15;;;;;;;11.15;100.00;100248.16;4977444;28;20544;-76
2023/01/12 08:39:53;;;;;;;10.40;2.13;;;;;;;11.06;100.00;100246.25;4944446;29;20042;-76
2023/01/12 08:42:22;;;;;;;6.05;1.23;;;;;;;10.77;100.00;100254.38;4938370;28;20064;-76
2023/01/12 08:44:47;;;;;;;13.15;2.13;;;;;;;10.83;100.00;100254.69;4939014;29;20046;-76
2023/01/12 08:47:18;;;;;;;4.63;1.42;;;;;;;10.62;100.00;100254.72;4924899;29;20047;-76
2023/01/12 08:49:45;;;;;;;5.95;1.58;;;;;;;10.59;100.00;100257.78;4963203;28;20038;-77
2023/01/12 08:52:11;;;;;;;3.58;0.73;;;;;;;10.52;100.00;100261.19;4946883;29;20119;-76
2023/01/12 08:54:36;;;;;;;9.88;1.27;;;;;;;10.42;100.00;100255.66;4937928;29;20543;-76
2023/01/12 08:57:01;;;;;;;4.97;1.20;;;;;;;10.33;100.00;100281.06;4939116;29;20039;-76
2023/01/12 08:59:27;;;;;;;6.75;1.75;;;;;;;10.58;100.00;100272.44;4938750;28;20402;-76
2023/01/12 09:01:52;;;;;;;9.40;1.45;;;;;;;10.56;100.00;100279.94;4959710;28;20126;-76
2023/01/12 09:04:18;;;;;;;13.95;1.90;;;;;;;10.54;100.00;100273.72;4962028;28;20058;-76
2023/01/12 09:06:44;;;;;;;10.68;1.40;;;;;;;10.62;100.00;100273.88;4943337;29;20039;-76
2023/01/12 09:09:13;;;;;;;9.63;1.83;;;;;;;10.65;100.00;100279.09;4940186;29;20035;-76
2023/01/12 09:11:40;;;;;;;7.55;1.95;;;;;;;10.74;100.00;100277.44;4922809;29;20038;-77
2023/01/12 09:14:06;;;;;;;3.78;1.40;;;;;;;10.73;100.00;100286.63;4956847;28;20131;-76
2023/01/12 09:16:32;;;;;;;6.38;1.15;;;;;;;10.68;100.00;100283.44;4959377;28;20129;-75
2023/01/12 09:18:58;;;;;;;8.23;1.38;;;;;;;10.78;100.00;100288.97;4964955;28;20027;-77
2023/01/12 09:21:26;;;;;;;5.60;1.40;;;;;;;10.85;100.00;100291.03;4970594;28;20109;-76
2023/01/12 09:23:52;;;;;;;4.28;1.55;;;;;;;10.73;100.00;100288.53;4957664;29;20031;-76
2023/01/12 09:26:20;;;;;;;9.40;1.75;;;;;;;10.88;100.00;100297.22;4957092;28;20131;-77
2023/01/12 09:28:46;;;;;;;8.35;1.23;;;;;;;10.78;100.00;100298.03;4957424;28;20031;-76
2023/01/12 09:31:17;;;;;;;16.67;2.03;;;;;;;11.00;100.00;100294.25;4949933;28;20485;-76
2023/01/12 09:33:44;;;;;;;15.05;2.15;;;;;;;10.94;100.00;100300.28;4939502;29;20031;-76
2023/01/12 09:36:12;;;;;;;10.63;1.50;;;;;;;10.89;100.00;100298.94;4956799;29;20478;-76
2023/01/12 09:38:39;;;;;;;6.47;1.80;;;;;;;10.91;100.00;100310.66;4953056;28;20512;-75
2023/01/12 09:41:10;;;;;;;5.68;1.50;;;;;;;10.77;100.00;100315.50;4955634;28;20039;-76
2023/01/12 09:49:35;;;;;;;3.88;1.40;;;;;;;11.16;100.00;100334.81;4916232;29;20047;-76
2023/01/12 09:52:23;;;;;;;15.98;1.70;;;;;;;11.17;100.00;100320.13;4956303;28;20074;-77
2023/01/12 09:54:51;;;;;;;1.17;1.00;;;;;;;11.18;100.00;100319.13;4953579;28;20038;-78
2023/01/12 09:57:46;;;;;;;8.88;2.10;;;;;;;11.28;100.00;100334.72;4991042;28;20471;-76
2023/01/12 10:00:15;;;;;;;1.25;0.90;;;;;;;11.12;100.00;100332.53;4962936;28;20066;-75
2023/01/12 10:02:47;;;;;;;4.43;1.30;;;;;;;11.30;100.00;100344.56;4955011;28;20034;-76
2023/01/12 10:05:36;;;;;;;5.25;1.60;;;;;;;11.21;100.00;100335.31;4967370;28;20494;-77
2023/01/12 10:08:03;;;;;;;8.35;1.75;;;;;;;11.26;100.00;100344.97;4956590;28;20035;-76
2023/01/12 10:10:28;;;;;;;5.22;1.45;;;;;;;11.31;100.00;100343.53;4930734;28;20038;-76
2023/01/12 10:12:59;;;;;;;5.03;1.05;;;;;;;11.22;100.00;100341.63;4947232;29;20044;-76
2023/01/12 10:15:46;;;;;;;9.32;1.63;;;;;;;11.34;100.00;100342.41;4939039;29;20126;-75
2023/01/12 10:18:23;;;;;;;4.40;1.30;;;;;;;11.30;100.00;100347.28;4971869;28;20031;-77
2023/01/12 10:20:49;;;;;;;10.43;1.80;;;;;;;11.35;100.00;100339.50;4959337;28;20039;-76
2023/01/12 10:23:19;;;;;;;6.82;1.30;;;;;;;11.26;100.00;100348.56;4975709;28;20039;-76
2023/01/12 10:25:50;;;;;;;7.20;1.90;;;;;;;11.40;100.00;100339.97;4968792;28;20055;-77
2023/01/12 10:28:28;;;;;;;8.73;1.40;;;;;;;11.57;100.00;100335.66;4956799;28;20115;-76
2023/01/12 10:30:54;;;;;;;3.88;1.10;;;;;;;11.51;100.00;100346.31;4955510;29;20043;-76
2023/01/12 10:33:26;;;;;;;7.85;1.35;;;;;;;11.42;100.00;100344.44;4958492;28;20069;-75
2023/01/12 10:36:03;;;;;;;6.50;1.08;;;;;;;11.27;100.00;100336.59;4948498;28;20039;-76
2023/01/12 10:38:33;;;;;;;1.63;0.90;;;;;;;11.30;100.00;100332.72;4949597;28;20043;-75
2023/01/12 10:41:03;;;;;;;3.75;0.95;;;;;;;11.47;100.00;100337.53;4942266;29;20543;-74
2023/01/12 10:43:32;;;;;;;4.80;0.82;;;;;;;11.37;100.00;100328.41;4941222;29;20039;-75
2023/01/12 10:46:03;;;;;;;2.17;0.75;;;;;;;11.52;100.00;100324.25;4958249;28;20031;-75
2023/01/12 10:48:30;;;;;;;5.03;0.98;;;;;;;11.48;100.00;100336.53;4938505;28;20047;-75
2023/01/12 10:51:04;;;;;;;2.35;0.80;;;;;;;10.56;100.00;100320.09;4938855;29;20074;-76
2023/01/12 10:53:50;;;;;;;2.03;0.85;;;;;;;10.58;100.00;100320.88;4954547;28;20050;-75
2023/01/12 10:56:18;;;;;;;2.47;1.13;;;;;;;10.72;100.00;100317.75;4936690;28;20066;-76
2023/01/12 10:58:54;;;;;;;6.25;1.27;;;;;;;10.46;100.00;100309.97;4938672;29;20400;-75
2023/01/12 11:01:20;;;;;;;2.33;1.08;;;;;;;10.52;100.00;100316.78;4955672;28;20068;-75
2023/01/12 11:03:46;;;;;;;5.38;1.20;;;;;;;10.48;100.00;100320.81;4956755;28;20402;-75
2023/01/12 11:06:25;;;;;;;6.88;1.25;;;;;;;10.54;100.00;100322.97;4929793;28;20042;-76
2023/01/12 11:08:51;;;;;;;2.85;1.30;;;;;;;10.54;100.00;100319.38;4940212;29;20050;-75
2023/01/12 11:11:27;;;;;;;5.90;1.13;;;;;;;10.60;100.00;100329.81;4957702;29;20422;-75
2023/01/12 11:14:01;;;;;;;3.13;0.90;;;;;;;10.60;100.00;100325.19;4969412;28;20131;-75
2023/01/12 11:17:20;;;;;;;5.10;1.10;;;;;;;10.75;100.00;100333.91;4942334;28;20073;-76
2023/01/12 11:19:49;;;;;;;2.33;1.30;;;;;;;10.55;100.00;100332.94;4938545;29;20163;-76
2023/01/12 11:22:26;;;;;;;5.97;1.50;;;;;;;10.54;100.00;100324.84;4948142;29;20118;-75
2023/01/12 11:25:06;;;;;;;5.30;1.30;;;;;;;10.59;100.00;100326.22;4942978;29;20505;-75
2023/01/12 11:27:51;;;;;;;3.55;1.75;;;;;;;10.60;100.00;100321.59;4970424;28;20491;-76
2023/01/12 11:30:35;;;;;;;3.58;1.00;;;;;;;10.54;100.00;100322.97;4963936;28;20027;-75
2023/01/12 11:33:07;;;;;;;5.18;1.30;;;;;;;10.47;100.00;100328.13;4942194;29;20034;-75
2023/01/12 11:35:36;;;;;;;6.53;1.00;;;;;;;10.63;100.00;100324.06;4958376;28;20481;-75
2023/01/12 11:38:12;;;;;;;3.60;1.13;;;;;;;10.73;100.00;100318.63;4941826;29;20043;-74
2023/01/12 11:40:38;;;;;;;11.13;1.27;;;;;;;10.69;100.00;100322.63;4941542;29;20118;-75
2023/01/12 11:43:49;;;;;;;5.55;0.98;;;;;;;10.56;100.00;100322.84;4955106;28;20035;-75
2023/01/12 11:46:25;;;;;;;5.78;2.08;;;;;;;10.59;100.00;100319.84;4949829;28;20067;-75
2023/01/12 11:49:09;;;;;;;6.88;1.23;;;;;;;10.65;100.00;100314.69;4938074;29;20039;-74
2023/01/12 11:51:36;;;;;;;8.25;1.20;;;;;;;10.51;100.00;100312.31;4947934;29;20035;-75
2023/01/12 11:54:02;;;;;;;6.68;1.00;;;;;;;10.42;100.00;100313.97;4944393;29;20310;-75